createdAt,value
2018-08-31T00:00:02.109Z,90.11
2018-08-31T00:00:56.057Z,90.37
2018-08-31T00:01:54.042Z,90.11
2018-08-31T00:02:45.404Z,90.83
2018-08-31T00:03:56.962Z,90.83
2018-08-31T00:04:55.288Z,90.42
2018-08-31T00:05:56.303Z,90.92
2018-08-31T00:06:56.126Z,90.88
2018-08-31T00:07:45.326Z,90.99
2018-08-31T00:08:55.145Z,90.01
2018-08-31T00:09:45.323Z,90.01
2018-08-31T00:10:55.297Z,89.40
2018-08-31T00:11:59.839Z,88.79
2018-08-31T00:12:45.343Z,89.70
2018-08-31T00:13:45.252Z,89.50
2018-08-31T00:14:45.293Z,89.40
2018-08-31T00:15:55.007Z,89.50
2018-08-31T00:16:45.229Z,88.59
2018-08-31T00:17:54.984Z,88.59
2018-08-31T00:18:45.206Z,88.89
2018-08-31T00:19:55.191Z,89.30
2018-08-31T00:20:45.168Z,89.30
2018-08-31T00:21:45.187Z,89.40
2018-08-31T00:22:54.788Z,89.61
2018-08-31T00:23:45.194Z,90.11
2018-08-31T00:24:55.899Z,89.44
2018-08-31T00:25:45.134Z,89.14
2018-08-31T00:26:45.095Z,89.24
2018-08-31T00:27:54.800Z,89.30
2018-08-31T00:29:55.959Z,89.61
2018-08-31T00:31:05.259Z,89.34
2018-08-31T00:31:55.817Z,90.16
2018-08-31T00:33:06.694Z,90.16
2018-08-31T00:33:55.789Z,90.16
2018-08-31T00:35:04.429Z,90.46
2018-08-31T00:37:07.433Z,90.05
2018-08-31T00:38:17.346Z,89.44
2018-08-31T00:39:18.112Z,89.34
2018-08-31T00:40:07.289Z,89.85
2018-08-31T00:41:18.086Z,90.16
2018-08-31T00:43:20.574Z,89.44
2018-08-31T00:45:33.307Z,89.64
2018-08-31T00:47:45.091Z,89.44
2018-08-31T00:48:45.120Z,90.25
2018-08-31T00:49:53.689Z,90.05
2018-08-31T00:50:45.064Z,90.05
2018-08-31T00:51:57.214Z,89.69
2018-08-31T00:53:56.645Z,90.16
2018-08-31T00:56:08.746Z,90.50
2018-08-31T00:57:08.734Z,90.20
2018-08-31T00:58:18.105Z,91.01
2018-08-31T00:59:08.575Z,90.60
2018-08-31T01:00:18.109Z,90.81
2018-08-31T01:02:21.323Z,91.22
2018-08-31T01:03:21.159Z,91.42
2018-08-31T01:04:21.193Z,91.01
2018-08-31T01:05:30.899Z,91.31
2018-08-31T01:06:21.163Z,91.31
2018-08-31T01:07:29.729Z,91.46
2018-08-31T01:09:32.013Z,91.52
2018-08-31T01:10:42.548Z,91.01
2018-08-31T01:12:44.692Z,90.60
2018-08-31T01:13:44.572Z,90.60
2018-08-31T01:14:55.478Z,91.01
2018-08-31T01:16:57.300Z,91.31
2018-08-31T01:18:07.207Z,91.01
2018-08-31T01:19:08.177Z,90.91
2018-08-31T01:19:57.215Z,90.70
2018-08-31T01:21:06.621Z,91.31
2018-08-31T01:21:57.159Z,91.01
2018-08-31T01:23:07.109Z,90.91
2018-08-31T01:23:57.112Z,91.31
2018-08-31T01:24:57.117Z,90.91
2018-08-31T01:25:57.120Z,90.70
2018-08-31T01:26:57.113Z,91.22
2018-08-31T01:27:57.080Z,91.11
2018-08-31T01:29:06.882Z,90.24
2018-08-31T01:30:06.554Z,90.24
2018-08-31T01:31:05.719Z,90.14
2018-08-31T01:31:57.035Z,89.01
2018-08-31T01:33:05.667Z,88.81
2018-08-31T01:33:57.017Z,89.73
2018-08-31T01:34:56.987Z,89.63
2018-08-31T01:36:05.649Z,89.63
2018-08-31T01:36:56.995Z,89.67
2018-08-31T01:37:56.958Z,89.63
2018-08-31T01:38:56.952Z,90.08
2018-08-31T01:39:56.923Z,89.53
2018-08-31T01:40:56.944Z,90.08
2018-08-31T01:42:11.774Z,90.14
2018-08-31T01:42:56.900Z,90.28
2018-08-31T01:43:56.897Z,90.08
2018-08-31T01:44:56.870Z,89.67
2018-08-31T01:45:56.892Z,89.53
2018-08-31T01:46:56.897Z,88.96
2018-08-31T01:47:56.860Z,88.96
2018-08-31T01:49:08.251Z,88.61
2018-08-31T01:50:11.250Z,87.69
2018-08-31T01:50:56.832Z,87.49
2018-08-31T01:53:07.668Z,87.94
2018-08-31T01:54:07.556Z,88.04
2018-08-31T01:55:07.522Z,87.32
2018-08-31T01:56:07.521Z,87.32
2018-08-31T01:57:07.493Z,87.73
2018-08-31T01:58:07.524Z,87.94
2018-08-31T01:59:07.488Z,87.63
2018-08-31T02:00:07.460Z,87.26
2018-08-31T02:01:19.486Z,88.08
2018-08-31T02:02:17.553Z,87.98
2018-08-31T02:03:07.489Z,88.08
2018-08-31T02:04:18.010Z,87.77
2018-08-31T02:05:19.737Z,87.12
2018-08-31T02:06:16.878Z,88.04
2018-08-31T02:07:07.428Z,87.53
2018-08-31T02:08:07.395Z,87.16
2018-08-31T02:09:17.062Z,87.73
2018-08-31T02:10:07.395Z,86.92
2018-08-31T02:11:07.342Z,87.47
2018-08-31T02:12:16.866Z,87.26
2018-08-31T02:14:20.856Z,87.47
2018-08-31T02:16:32.452Z,87.02
2018-08-31T02:17:43.009Z,86.55
2018-08-31T02:18:32.374Z,85.69
2018-08-31T02:19:32.286Z,86.82
2018-08-31T02:20:32.262Z,85.74
2018-08-31T02:21:32.264Z,86.21
2018-08-31T02:22:43.424Z,86.86
2018-08-31T02:23:32.250Z,87.12
2018-08-31T02:24:32.238Z,86.71
2018-08-31T02:25:32.252Z,85.33
2018-08-31T02:26:32.237Z,85.94
2018-08-31T02:27:32.964Z,84.47
2018-08-31T02:28:32.789Z,84.61
2018-08-31T02:29:43.149Z,84.61
2018-08-31T02:30:32.221Z,85.43
2018-08-31T02:31:43.951Z,85.63
2018-08-31T02:32:32.147Z,85.13
2018-08-31T02:33:41.648Z,85.02
2018-08-31T02:34:32.197Z,85.53
2018-08-31T02:35:41.644Z,85.22
2018-08-31T02:36:32.191Z,84.61
2018-08-31T02:37:32.095Z,85.53
2018-08-31T02:38:41.503Z,85.33
2018-08-31T02:40:42.917Z,85.22
2018-08-31T02:42:53.636Z,84.82
2018-08-31T02:43:53.543Z,85.33
2018-08-31T02:46:06.480Z,84.51
2018-08-31T02:48:18.557Z,84.82
2018-08-31T02:49:29.082Z,85.02
2018-08-31T02:50:28.349Z,85.84
2018-08-31T02:51:28.238Z,85.94
2018-08-31T02:52:20.045Z,85.63
2018-08-31T02:53:28.400Z,85.63
2018-08-31T02:54:18.398Z,86.24
2018-08-31T02:55:28.002Z,87.16
2018-08-31T02:56:18.340Z,86.96
2018-08-31T02:57:27.992Z,85.13
2018-08-31T02:59:32.211Z,85.84
2018-08-31T03:00:32.070Z,86.04
2018-08-31T03:01:32.058Z,85.33
2018-08-31T03:02:42.865Z,85.33
2018-08-31T03:03:40.651Z,85.63
2018-08-31T03:04:32.003Z,86.15
2018-08-31T03:05:31.974Z,85.43
2018-08-31T03:06:41.528Z,85.63
2018-08-31T03:07:32.022Z,85.94
2018-08-31T03:08:41.480Z,86.15
2018-08-31T03:10:42.795Z,86.04
2018-08-31T03:11:42.702Z,85.94
2018-08-31T03:12:42.645Z,86.55
2018-08-31T03:13:42.600Z,86.55
2018-08-31T03:14:42.642Z,87.06
2018-08-31T03:15:53.181Z,87.06
2018-08-31T03:17:55.637Z,87.06
2018-08-31T03:18:55.530Z,86.76
2018-08-31T03:19:55.493Z,86.86
2018-08-31T03:21:05.511Z,87.57
2018-08-31T03:21:56.005Z,87.20
2018-08-31T03:22:55.437Z,87.10
2018-08-31T03:23:55.524Z,87.41
2018-08-31T03:24:55.467Z,88.12
2018-08-31T03:25:55.443Z,87.51
2018-08-31T03:27:05.236Z,87.67
2018-08-31T03:28:06.982Z,87.51
2018-08-31T03:28:55.431Z,87.88
2018-08-31T03:29:55.367Z,87.20
2018-08-31T03:31:05.259Z,87.71
2018-08-31T03:32:05.245Z,87.71
2018-08-31T03:32:55.349Z,87.71
2018-08-31T03:34:04.001Z,88.02
2018-08-31T03:34:55.309Z,88.12
2018-08-31T03:35:56.144Z,87.20
2018-08-31T03:37:03.561Z,87.10
2018-08-31T03:37:55.281Z,87.92
2018-08-31T03:39:07.228Z,87.96
2018-08-31T03:39:55.266Z,87.71
2018-08-31T03:40:55.257Z,87.92
2018-08-31T03:41:55.263Z,87.20
2018-08-31T03:42:55.216Z,88.02
2018-08-31T03:43:55.248Z,87.71
2018-08-31T03:45:04.724Z,87.51
2018-08-31T03:45:55.217Z,87.41
2018-08-31T03:46:55.146Z,87.20
2018-08-31T03:47:55.218Z,87.61
2018-08-31T03:49:07.216Z,87.61
2018-08-31T03:49:55.161Z,87.41
2018-08-31T03:50:55.112Z,87.71
2018-08-31T03:51:55.131Z,87.82
2018-08-31T03:53:04.613Z,87.65
2018-08-31T03:54:04.639Z,87.55
2018-08-31T03:54:55.134Z,87.65
2018-08-31T03:56:04.513Z,88.02
2018-08-31T03:56:55.080Z,87.92
2018-08-31T03:57:55.013Z,88.02
2018-08-31T03:59:03.665Z,88.12
2018-08-31T03:59:55.009Z,88.32
2018-08-31T04:01:03.657Z,88.12
2018-08-31T04:03:07.071Z,87.71
2018-08-31T04:04:19.894Z,86.80
2018-08-31T04:05:19.017Z,87.20
2018-08-31T04:06:17.490Z,87.71
2018-08-31T04:08:18.493Z,87.51
2018-08-31T04:09:18.360Z,87.92
2018-08-31T04:10:18.332Z,88.02
2018-08-31T04:11:18.359Z,88.32
2018-08-31T04:12:29.965Z,88.12
2018-08-31T04:13:26.958Z,87.71
2018-08-31T04:14:18.312Z,87.92
2018-08-31T04:15:28.160Z,87.71
2018-08-31T04:16:30.016Z,87.51
2018-08-31T04:17:26.899Z,87.41
2018-08-31T04:18:18.258Z,87.51
2018-08-31T04:19:18.236Z,87.92
2018-08-31T04:20:18.227Z,87.71
2018-08-31T04:21:18.218Z,86.90
2018-08-31T04:22:18.217Z,87.51
2018-08-31T04:23:18.193Z,87.20
2018-08-31T04:24:18.198Z,87.30
2018-08-31T04:25:18.197Z,88.12
2018-08-31T04:26:29.463Z,87.82
2018-08-31T04:27:18.179Z,88.12
2018-08-31T04:28:18.130Z,88.73
2018-08-31T04:29:26.781Z,89.04
2018-08-31T04:30:18.137Z,88.93
2018-08-31T04:31:18.107Z,87.10
2018-08-31T04:32:26.809Z,86.59
2018-08-31T04:34:28.937Z,88.12
2018-08-31T04:36:40.846Z,88.37
2018-08-31T04:38:52.550Z,88.06
2018-08-31T04:39:52.443Z,88.17
2018-08-31T04:40:52.391Z,88.67
2018-08-31T04:41:52.443Z,88.12
2018-08-31T04:42:52.457Z,88.06
2018-08-31T04:44:02.447Z,88.06
2018-08-31T04:46:04.471Z,87.76
2018-08-31T04:47:16.778Z,87.76
2018-08-31T04:48:14.370Z,87.65
2018-08-31T04:49:04.403Z,88.06
2018-08-31T04:50:13.941Z,88.37
2018-08-31T04:51:04.415Z,88.78
2018-08-31T04:52:13.881Z,88.78
2018-08-31T04:53:13.043Z,88.88
2018-08-31T04:54:04.356Z,88.63
2018-08-31T04:55:04.336Z,87.65
2018-08-31T04:56:04.299Z,88.17
2018-08-31T04:57:04.294Z,87.96
2018-08-31T04:58:13.943Z,88.17
2018-08-31T04:59:04.296Z,88.73
2018-08-31T05:00:12.876Z,88.88
2018-08-31T05:01:04.256Z,88.32
2018-08-31T05:02:04.209Z,88.43
2018-08-31T05:03:04.261Z,88.43
2018-08-31T05:04:04.221Z,88.93
2018-08-31T05:05:04.950Z,88.73
2018-08-31T05:06:04.210Z,88.18
2018-08-31T05:07:12.826Z,87.98
2018-08-31T05:08:04.217Z,87.77
2018-08-31T05:09:04.189Z,89.00
2018-08-31T05:10:04.153Z,88.69
2018-08-31T05:11:04.137Z,89.00
2018-08-31T05:12:04.208Z,89.00
2018-08-31T05:13:04.069Z,88.79
2018-08-31T05:14:13.553Z,88.04
2018-08-31T05:15:06.021Z,86.82
2018-08-31T05:16:04.160Z,86.71
2018-08-31T05:17:04.118Z,86.82
2018-08-31T05:18:04.195Z,87.02
2018-08-31T05:19:04.018Z,86.61
2018-08-31T05:20:04.976Z,87.02
2018-08-31T05:21:13.555Z,86.82
2018-08-31T05:22:04.009Z,86.00
2018-08-31T05:23:13.896Z,86.92
2018-08-31T05:24:04.016Z,85.80
2018-08-31T05:25:04.002Z,85.28
2018-08-31T05:26:04.552Z,84.88
2018-08-31T05:27:04.002Z,85.49
2018-08-31T05:28:03.943Z,86.82
2018-08-31T05:29:12.562Z,86.57
2018-08-31T05:30:03.953Z,85.25
2018-08-31T05:31:04.062Z,85.08
2018-08-31T05:32:03.905Z,85.08
2018-08-31T05:33:03.966Z,85.25
2018-08-31T05:34:03.850Z,84.43
2018-08-31T05:35:03.812Z,84.78
2018-08-31T05:36:03.841Z,85.39
2018-08-31T05:37:03.798Z,85.60
2018-08-31T05:38:03.781Z,85.69
2018-08-31T05:39:03.787Z,85.39
2018-08-31T05:40:03.756Z,85.08
2018-08-31T05:41:03.780Z,85.19
2018-08-31T05:42:03.739Z,85.28
2018-08-31T05:43:03.736Z,84.98
2018-08-31T05:44:03.733Z,84.98
2018-08-31T05:45:03.699Z,85.08
2018-08-31T05:46:03.688Z,84.78
2018-08-31T05:47:03.709Z,85.02
2018-08-31T05:48:03.680Z,85.28
2018-08-31T05:49:03.660Z,84.98
2018-08-31T05:50:14.367Z,85.33
2018-08-31T05:51:04.635Z,85.33
2018-08-31T05:52:04.605Z,86.15
2018-08-31T05:53:03.689Z,86.24
2018-08-31T05:54:03.629Z,85.33
2018-08-31T05:55:03.624Z,85.43
2018-08-31T05:56:03.641Z,85.28
2018-08-31T05:57:03.624Z,85.43
2018-08-31T05:58:03.691Z,85.22
2018-08-31T05:59:03.590Z,85.69
2018-08-31T06:00:13.621Z,86.15
2018-08-31T06:01:03.633Z,85.60
2018-08-31T06:02:03.619Z,85.60
2018-08-31T06:03:04.155Z,84.58
2018-08-31T06:04:13.605Z,83.86
2018-08-31T06:05:03.510Z,84.27
2018-08-31T06:06:03.486Z,84.06
2018-08-31T06:07:03.568Z,83.62
2018-08-31T06:08:03.495Z,83.89
2018-08-31T06:09:13.873Z,83.78
2018-08-31T06:10:03.472Z,82.62
2018-08-31T06:11:12.099Z,82.01
2018-08-31T06:12:03.543Z,80.69
2018-08-31T06:13:03.442Z,80.96
2018-08-31T06:14:03.443Z,80.29
2018-08-31T06:15:03.406Z,80.73
2018-08-31T06:16:03.390Z,80.93
2018-08-31T06:17:03.374Z,81.24
2018-08-31T06:18:03.387Z,81.88
2018-08-31T06:19:04.193Z,82.40
2018-08-31T06:20:03.422Z,82.56
2018-08-31T06:21:03.438Z,81.04
2018-08-31T06:22:03.308Z,80.73
2018-08-31T06:23:03.308Z,80.73
2018-08-31T06:24:03.280Z,79.71
2018-08-31T06:25:04.271Z,79.85
2018-08-31T06:26:03.307Z,81.24
2018-08-31T06:27:12.837Z,80.73
2018-08-31T06:28:03.311Z,82.12
2018-08-31T06:29:03.222Z,81.81
2018-08-31T06:30:03.249Z,79.84
2018-08-31T06:31:12.785Z,78.08
2018-08-31T06:32:03.205Z,77.33
2018-08-31T06:33:03.215Z,76.95
2018-08-31T06:34:03.193Z,73.39
2018-08-31T06:35:03.207Z,74.68
2018-08-31T06:36:03.143Z,73.06
2018-08-31T06:37:03.150Z,73.73
2018-08-31T06:38:03.096Z,74.07
2018-08-31T06:39:03.106Z,75.35
2018-08-31T06:40:03.109Z,74.44
2018-08-31T06:41:03.070Z,73.73
2018-08-31T06:42:03.142Z,72.31
2018-08-31T06:43:03.091Z,73.87
2018-08-31T06:44:03.039Z,72.21
2018-08-31T06:45:03.045Z,72.34
2018-08-31T06:46:03.030Z,72.65
2018-08-31T06:47:03.013Z,72.25
2018-08-31T06:48:03.001Z,71.64
2018-08-31T06:49:02.995Z,72.75
2018-08-31T06:50:02.983Z,72.45
2018-08-31T06:51:02.959Z,73.57
2018-08-31T06:52:03.954Z,72.65
2018-08-31T06:53:11.915Z,72.75
2018-08-31T06:54:02.985Z,72.85
2018-08-31T06:55:13.861Z,73.09
2018-08-31T06:56:11.562Z,73.50
2018-08-31T06:57:02.912Z,72.17
2018-08-31T06:58:04.356Z,73.60
2018-08-31T06:59:02.891Z,73.90
2018-08-31T07:00:04.345Z,75.22
2018-08-31T07:01:03.795Z,71.64
2018-08-31T07:02:13.906Z,71.84
2018-08-31T07:03:02.862Z,74.44
2018-08-31T07:04:13.580Z,73.93
2018-08-31T07:05:02.837Z,72.68
2018-08-31T07:06:13.673Z,71.44
2018-08-31T07:07:12.512Z,71.73
2018-08-31T07:09:15.349Z,70.56
2018-08-31T07:10:15.193Z,71.13
2018-08-31T07:11:15.162Z,71.73
2018-08-31T07:12:15.272Z,72.24
2018-08-31T07:13:15.212Z,70.29
2018-08-31T07:14:24.681Z,72.11
2018-08-31T07:16:27.377Z,71.09
2018-08-31T07:17:27.279Z,70.49
2018-08-31T07:18:28.211Z,69.27
2018-08-31T07:19:28.528Z,68.53
2018-08-31T07:20:27.163Z,71.47
2018-08-31T07:21:27.154Z,71.44
2018-08-31T07:22:27.179Z,68.73
2018-08-31T07:23:27.174Z,69.65
2018-08-31T07:24:35.840Z,68.33
2018-08-31T07:26:39.392Z,67.35
2018-08-31T07:27:39.247Z,66.24
2018-08-31T07:28:47.903Z,66.88
2018-08-31T07:29:39.271Z,67.92
2018-08-31T07:30:39.195Z,69.24
2018-08-31T07:31:39.208Z,69.34
2018-08-31T07:32:39.148Z,68.83
2018-08-31T07:33:39.193Z,69.78
2018-08-31T07:34:47.862Z,70.28
2018-08-31T07:35:39.201Z,70.86
2018-08-31T07:36:39.205Z,71.57
2018-08-31T07:37:39.143Z,71.06
2018-08-31T07:39:52.304Z,67.28
2018-08-31T07:40:52.237Z,67.68
2018-08-31T07:43:04.930Z,69.81
2018-08-31T07:45:16.253Z,69.92
2018-08-31T07:46:16.120Z,69.54
2018-08-31T07:47:16.099Z,69.84
2018-08-31T07:48:16.078Z,70.65
2018-08-31T07:49:16.080Z,71.97
2018-08-31T07:50:16.739Z,69.81
2018-08-31T07:51:27.676Z,66.80
2018-08-31T07:52:16.059Z,67.92
2018-08-31T07:54:28.505Z,68.66
2018-08-31T07:55:28.406Z,68.56
2018-08-31T07:56:37.004Z,68.56
2018-08-31T07:57:28.337Z,70.42
2018-08-31T07:58:28.326Z,70.18
2018-08-31T07:59:28.297Z,69.51
2018-08-31T08:00:28.270Z,70.62
2018-08-31T08:01:37.826Z,70.62
2018-08-31T08:02:28.314Z,68.90
2018-08-31T08:03:28.320Z,70.04
2018-08-31T08:04:28.259Z,70.15
2018-08-31T08:05:37.965Z,70.96
2018-08-31T08:06:36.892Z,70.65
2018-08-31T08:07:29.546Z,70.38
2018-08-31T08:08:28.239Z,70.68
2018-08-31T08:09:36.922Z,70.92
2018-08-31T08:10:28.240Z,72.31
2018-08-31T08:11:28.155Z,71.43
2018-08-31T08:12:37.695Z,72.41
2018-08-31T08:13:28.138Z,72.04
2018-08-31T08:14:28.179Z,72.41
2018-08-31T08:15:36.784Z,71.80
2018-08-31T08:16:38.856Z,72.08
2018-08-31T08:17:36.800Z,73.39
2018-08-31T08:18:28.109Z,72.85
2018-08-31T08:19:29.139Z,71.67
2018-08-31T08:20:28.124Z,71.94
2018-08-31T08:21:36.736Z,72.04
2018-08-31T08:22:36.745Z,71.94
2018-08-31T08:23:28.025Z,69.60
2018-08-31T08:24:36.682Z,70.15
2018-08-31T08:25:28.042Z,71.88
2018-08-31T08:26:28.033Z,70.04
2018-08-31T08:27:28.780Z,70.79
2018-08-31T08:28:28.165Z,72.01
2018-08-31T08:29:38.557Z,71.30
2018-08-31T08:30:38.034Z,70.48
2018-08-31T08:31:29.492Z,71.80
2018-08-31T08:32:27.953Z,71.70
2018-08-31T08:33:38.114Z,71.40
2018-08-31T08:34:27.970Z,71.20
2018-08-31T08:35:27.915Z,72.11
2018-08-31T08:36:27.950Z,71.80
2018-08-31T08:37:37.658Z,71.77
2018-08-31T08:38:37.599Z,70.76
2018-08-31T08:39:28.514Z,71.88
2018-08-31T08:40:27.839Z,71.88
2018-08-31T08:41:28.481Z,71.16
2018-08-31T08:42:27.931Z,70.25
2018-08-31T08:43:27.845Z,68.62
2018-08-31T08:44:27.797Z,69.64
2018-08-31T08:45:37.367Z,70.45
2018-08-31T08:46:27.821Z,69.95
2018-08-31T08:47:27.766Z,72.48
2018-08-31T08:48:27.874Z,71.64
2018-08-31T08:49:37.787Z,70.01
2018-08-31T08:50:27.753Z,70.92
2018-08-31T08:51:27.750Z,70.21
2018-08-31T08:52:37.322Z,70.62
2018-08-31T08:53:27.730Z,72.11
2018-08-31T08:54:37.265Z,72.01
2018-08-31T08:55:36.346Z,71.57
2018-08-31T08:57:52.390Z,70.96
2018-08-31T08:58:52.267Z,66.80
2018-08-31T08:59:52.302Z,68.66
2018-08-31T09:00:52.207Z,68.35
2018-08-31T09:02:00.881Z,70.89
2018-08-31T09:02:52.190Z,69.44
2018-08-31T09:03:53.189Z,70.76
2018-08-31T09:04:52.169Z,71.06
2018-08-31T09:05:52.363Z,70.83
2018-08-31T09:07:03.525Z,68.77
2018-08-31T09:08:00.812Z,68.77
2018-08-31T09:10:06.392Z,65.22
2018-08-31T09:11:06.383Z,65.93
2018-08-31T09:12:07.252Z,66.84
2018-08-31T09:13:06.193Z,67.65
2018-08-31T09:14:14.857Z,67.14
2018-08-31T09:15:06.182Z,68.43
2018-08-31T09:16:14.847Z,66.61
2018-08-31T09:17:06.209Z,67.05
2018-08-31T09:18:06.165Z,66.54
2018-08-31T09:19:07.104Z,64.41
2018-08-31T09:20:14.818Z,66.03
2018-08-31T09:21:06.672Z,65.86
2018-08-31T09:22:17.556Z,68.70
2018-08-31T09:23:06.095Z,67.05
2018-08-31T09:24:06.101Z,66.94
2018-08-31T09:25:06.089Z,66.88
